createdAt,value
2024-02-06T05:00:31.138Z,86.30
2024-02-06T05:01:32.122Z,86.40
2024-02-06T05:02:32.076Z,86.33
2024-02-06T05:03:32.083Z,86.50
2024-02-06T05:04:32.133Z,86.65
2024-02-06T05:05:32.033Z,86.50
2024-02-06T05:06:32.058Z,86.50
2024-02-06T05:07:32.080Z,86.50
2024-02-06T05:08:32.109Z,86.60
2024-02-06T05:09:32.034Z,86.60
2024-02-06T05:10:32.022Z,86.50
2024-02-06T05:11:31.973Z,86.60
2024-02-06T05:12:31.959Z,86.71
2024-02-06T05:13:31.986Z,86.71
2024-02-06T05:14:31.968Z,86.81
2024-02-06T05:15:31.923Z,86.91
2024-02-06T05:16:31.944Z,86.91
2024-02-06T05:17:31.947Z,86.91
2024-02-06T05:18:31.992Z,86.91
2024-02-06T05:19:31.895Z,87.02
2024-02-06T05:20:31.874Z,87.02
2024-02-06T05:21:31.855Z,87.02
2024-02-06T05:22:31.932Z,86.91
2024-02-06T05:23:31.844Z,87.02
2024-02-06T05:24:31.823Z,87.12
2024-02-06T05:25:31.843Z,87.32
2024-02-06T05:26:31.812Z,87.12
2024-02-06T05:27:31.787Z,86.91
2024-02-06T05:28:31.860Z,87.02
2024-02-06T05:29:31.773Z,87.05
2024-02-06T05:30:31.777Z,86.91
2024-02-06T05:31:31.774Z,86.91
2024-02-06T05:32:31.735Z,86.81
2024-02-06T05:33:31.749Z,86.71
2024-02-06T05:34:31.925Z,86.60
2024-02-06T05:35:31.699Z,86.60
2024-02-06T05:36:31.696Z,86.50
2024-02-06T05:37:31.751Z,86.40
2024-02-06T05:38:31.719Z,86.40
2024-02-06T05:39:31.662Z,86.30
2024-02-06T05:40:31.726Z,86.09
2024-02-06T05:41:31.643Z,85.99
2024-02-06T05:42:31.625Z,85.99
2024-02-06T05:43:31.703Z,85.78
2024-02-06T05:44:31.608Z,85.58
2024-02-06T05:45:31.593Z,85.58
2024-02-06T05:46:31.602Z,85.38
2024-02-06T05:47:31.588Z,85.38
2024-02-06T05:48:31.564Z,85.38
2024-02-06T05:49:31.610Z,85.47
2024-02-06T05:50:31.790Z,85.38
2024-02-06T05:51:31.518Z,85.38
2024-02-06T05:52:31.526Z,85.23
2024-02-06T05:53:31.492Z,85.27
2024-02-06T05:54:31.486Z,85.13
2024-02-06T05:55:31.519Z,85.03
2024-02-06T05:56:31.474Z,85.13
2024-02-06T05:57:31.462Z,85.03
2024-02-06T05:58:31.493Z,85.03
2024-02-06T05:59:31.450Z,85.03
2024-02-06T06:00:31.459Z,84.92
2024-02-06T06:01:31.515Z,84.92
2024-02-06T06:02:31.408Z,84.72
2024-02-06T06:03:31.407Z,84.61
2024-02-06T06:04:31.777Z,84.41
2024-02-06T06:05:31.454Z,84.10
2024-02-06T06:06:31.526Z,84.10
2024-02-06T06:07:31.497Z,84.00
2024-02-06T06:08:31.446Z,84.10
2024-02-06T06:09:31.324Z,84.10
2024-02-06T06:10:31.375Z,84.00
2024-02-06T06:11:31.322Z,83.80
2024-02-06T06:12:31.294Z,83.80
2024-02-06T06:13:31.351Z,83.80
2024-02-06T06:14:31.305Z,83.69
2024-02-06T06:15:31.208Z,83.59
2024-02-06T06:16:31.322Z,83.45
2024-02-06T06:17:31.211Z,83.45
2024-02-06T06:18:31.340Z,83.34
2024-02-06T06:19:31.220Z,83.34
2024-02-06T06:20:31.192Z,83.34
2024-02-06T06:21:31.146Z,83.49
2024-02-06T06:22:31.229Z,83.45
2024-02-06T06:23:31.138Z,83.45
2024-02-06T06:24:31.146Z,83.45
2024-02-06T06:25:31.239Z,83.45
2024-02-06T06:26:31.091Z,83.45
2024-02-06T06:27:31.078Z,83.45
2024-02-06T06:28:31.182Z,83.59
2024-02-06T06:29:31.078Z,83.76
2024-02-06T06:30:31.076Z,83.65
2024-02-06T06:31:31.116Z,83.76
2024-02-06T06:32:31.073Z,83.86
2024-02-06T06:33:31.065Z,84.00
2024-02-06T06:34:31.079Z,83.96
2024-02-06T06:35:31.083Z,83.90
2024-02-06T06:36:31.000Z,83.96
2024-02-06T06:37:30.995Z,83.96
2024-02-06T06:38:31.037Z,84.06
2024-02-06T06:39:30.993Z,84.10
2024-02-06T06:40:31.095Z,83.96
2024-02-06T06:41:30.947Z,83.96
2024-02-06T06:42:30.924Z,83.86
2024-02-06T06:43:30.993Z,83.86
2024-02-06T06:44:30.897Z,83.76
2024-02-06T06:45:30.942Z,83.76
2024-02-06T06:46:30.901Z,83.65
2024-02-06T06:47:30.917Z,83.76
2024-02-06T06:48:31.090Z,83.96
2024-02-06T06:49:30.964Z,83.96
2024-02-06T06:50:30.879Z,83.96
2024-02-06T06:51:30.827Z,83.96
2024-02-06T06:52:30.892Z,83.86
2024-02-06T06:53:30.788Z,83.76
2024-02-06T06:54:31.972Z,83.65
2024-02-06T06:55:30.867Z,83.55
2024-02-06T06:56:31.516Z,83.45
2024-02-06T06:57:30.794Z,83.45
2024-02-06T06:58:30.964Z,83.45
2024-02-06T06:59:30.796Z,83.55
2024-02-06T07:00:30.750Z,83.55
2024-02-06T07:01:31.051Z,83.34
2024-02-06T07:02:30.698Z,83.34
2024-02-06T07:03:30.722Z,83.14
2024-02-06T07:04:30.708Z,83.25
2024-02-06T07:05:30.703Z,83.14
2024-02-06T07:06:30.728Z,83.14
2024-02-06T07:07:30.723Z,83.14
2024-02-06T07:08:30.640Z,83.14
2024-02-06T07:09:30.625Z,83.14
2024-02-06T07:10:30.698Z,83.25
2024-02-06T07:11:30.606Z,83.14
2024-02-06T07:12:30.594Z,82.93
2024-02-06T07:13:30.741Z,83.04
2024-02-06T07:14:30.573Z,83.04
2024-02-06T07:15:30.596Z,83.04
2024-02-06T07:16:30.623Z,82.93
2024-02-06T07:17:30.542Z,82.93
2024-02-06T07:18:30.551Z,82.83
2024-02-06T07:19:30.633Z,82.90
2024-02-06T07:20:30.557Z,82.90
2024-02-06T07:21:30.499Z,82.93
2024-02-06T07:22:30.524Z,82.79
2024-02-06T07:23:30.522Z,82.90
2024-02-06T07:24:30.596Z,82.90
2024-02-06T07:25:30.509Z,82.90
2024-02-06T07:26:30.469Z,83.00
2024-02-06T07:27:30.428Z,83.00
2024-02-06T07:28:30.622Z,83.10
2024-02-06T07:29:30.449Z,83.00
2024-02-06T07:30:37.035Z,82.90
2024-02-06T07:31:30.449Z,82.79
2024-02-06T07:32:30.477Z,83.00
2024-02-06T07:33:30.460Z,82.90
2024-02-06T07:34:30.444Z,82.90
2024-02-06T07:35:30.396Z,83.00
2024-02-06T07:36:30.353Z,82.90
2024-02-06T07:37:30.352Z,82.90
2024-02-06T07:38:30.322Z,82.90
2024-02-06T07:39:30.310Z,82.90
2024-02-06T07:40:30.319Z,82.79
2024-02-06T07:41:30.295Z,82.79
2024-02-06T07:42:30.293Z,82.90
2024-02-06T07:43:30.440Z,82.79
2024-02-06T07:44:30.281Z,82.90
2024-02-06T07:45:30.232Z,82.90
2024-02-06T07:46:30.266Z,82.90
2024-02-06T07:47:30.246Z,82.90
2024-02-06T07:48:30.234Z,83.10
2024-02-06T07:49:30.333Z,83.10
2024-02-06T07:50:30.199Z,83.10
2024-02-06T07:51:30.177Z,83.20
2024-02-06T07:52:30.196Z,83.31
2024-02-06T07:53:30.150Z,83.31
2024-02-06T07:54:30.258Z,83.41
2024-02-06T07:55:30.200Z,83.31
2024-02-06T07:56:32.380Z,83.41
2024-02-06T07:57:30.120Z,83.20
2024-02-06T07:58:30.224Z,83.20
2024-02-06T07:59:30.624Z,83.10
2024-02-06T08:00:30.097Z,83.10
2024-02-06T08:01:30.186Z,83.00
2024-02-06T08:02:30.048Z,83.00
2024-02-06T08:03:30.115Z,83.10
2024-02-06T08:04:30.072Z,83.10
2024-02-06T08:05:30.136Z,83.20
2024-02-06T08:06:30.168Z,83.10
2024-02-06T08:07:30.213Z,83.20
2024-02-06T08:08:30.064Z,83.31
2024-02-06T08:09:30.013Z,83.31
2024-02-06T08:10:30.017Z,83.20
2024-02-06T08:11:30.019Z,83.10
2024-02-06T08:12:30.007Z,83.00
2024-02-06T08:13:29.987Z,83.00
2024-02-06T08:14:29.918Z,82.86
2024-02-06T08:15:29.939Z,82.76
2024-02-06T08:16:29.969Z,82.65
2024-02-06T08:17:29.983Z,82.55
2024-02-06T08:18:29.982Z,82.55
2024-02-06T08:19:30.016Z,82.55
2024-02-06T08:20:29.918Z,82.45
2024-02-06T08:21:29.868Z,82.35
2024-02-06T08:22:30.000Z,82.35
2024-02-06T08:23:29.878Z,82.35
2024-02-06T08:24:29.841Z,82.45
2024-02-06T08:25:31.293Z,82.14
2024-02-06T08:26:29.828Z,82.14
2024-02-06T08:27:29.857Z,82.14
2024-02-06T08:28:29.865Z,81.94
2024-02-06T08:29:29.829Z,81.94
2024-02-06T08:30:29.782Z,81.94
2024-02-06T08:31:29.835Z,82.04
2024-02-06T08:32:29.782Z,81.94
2024-02-06T08:33:29.732Z,81.84
2024-02-06T08:34:29.772Z,81.73
2024-02-06T08:35:29.834Z,81.73
2024-02-06T08:36:29.904Z,81.73
2024-02-06T08:37:29.729Z,81.52
2024-02-06T08:38:29.917Z,81.43
2024-02-06T08:39:29.653Z,81.32
2024-02-06T08:40:29.741Z,81.32
2024-02-06T08:41:29.628Z,80.98
2024-02-06T08:42:29.631Z,81.18
2024-02-06T08:43:39.359Z,80.98
2024-02-06T08:44:29.612Z,81.18
2024-02-06T08:45:29.588Z,81.08
2024-02-06T08:46:30.381Z,80.88
2024-02-06T08:47:29.581Z,80.77
2024-02-06T08:48:30.993Z,80.98
2024-02-06T08:49:29.610Z,80.88
2024-02-06T08:50:29.559Z,80.88
2024-02-06T08:51:29.536Z,80.88
2024-02-06T08:52:29.522Z,80.57
2024-02-06T08:53:29.504Z,80.67
2024-02-06T08:54:29.491Z,80.46
2024-02-06T08:55:29.576Z,80.36
2024-02-06T08:56:29.659Z,80.26
2024-02-06T08:57:29.480Z,80.26
2024-02-06T08:58:30.514Z,80.22
2024-02-06T08:59:29.440Z,80.16
2024-02-06T09:00:29.443Z,80.02
2024-02-06T09:01:29.738Z,80.02
2024-02-06T09:02:29.521Z,79.91
2024-02-06T09:03:29.409Z,79.82
2024-02-06T09:04:29.452Z,79.82
2024-02-06T09:05:29.531Z,79.71
2024-02-06T09:06:29.385Z,79.71
2024-02-06T09:07:29.685Z,79.61
2024-02-06T09:08:29.328Z,79.41
2024-02-06T09:09:29.322Z,79.10
2024-02-06T09:10:29.776Z,79.30
2024-02-06T09:11:29.301Z,79.00
2024-02-06T09:12:29.317Z,79.10
2024-02-06T09:13:29.311Z,78.79
2024-02-06T09:14:29.833Z,78.65
2024-02-06T09:15:29.261Z,78.79
2024-02-06T09:16:29.300Z,78.59
2024-02-06T09:17:29.286Z,78.49
2024-02-06T09:18:29.309Z,78.45
2024-02-06T09:19:29.333Z,78.24
2024-02-06T09:20:30.177Z,78.14
2024-02-06T09:21:29.189Z,78.14
2024-02-06T09:22:29.282Z,78.24
2024-02-06T09:23:29.381Z,78.14
2024-02-06T09:24:29.263Z,78.04
2024-02-06T09:25:29.245Z,77.94
2024-02-06T09:26:29.152Z,78.04
2024-02-06T09:27:29.219Z,78.04
2024-02-06T09:28:29.252Z,77.94
2024-02-06T09:29:29.150Z,78.04
2024-02-06T09:30:29.112Z,78.04
2024-02-06T09:31:29.113Z,77.94
2024-02-06T09:32:29.254Z,78.04
2024-02-06T09:33:29.208Z,77.94
2024-02-06T09:34:29.275Z,77.94
2024-02-06T09:35:29.122Z,77.94
2024-02-06T09:36:29.146Z,78.04
2024-02-06T09:37:29.132Z,78.04
2024-02-06T09:38:29.044Z,78.04
2024-02-06T09:39:29.055Z,77.94
2024-02-06T09:40:29.024Z,77.94
2024-02-06T09:41:28.978Z,78.04
2024-02-06T09:42:29.076Z,78.04
2024-02-06T09:43:29.041Z,78.14
2024-02-06T09:44:28.946Z,78.04
2024-02-06T09:45:28.936Z,78.14
2024-02-06T09:46:28.963Z,78.04
2024-02-06T09:47:28.990Z,78.04
2024-02-06T09:48:29.024Z,78.24
2024-02-06T09:49:29.015Z,78.14
2024-02-06T09:50:28.904Z,77.94
2024-02-06T09:51:28.871Z,78.11
2024-02-06T09:52:28.911Z,78.14
2024-02-06T09:53:28.858Z,78.11
2024-02-06T09:54:28.843Z,78.31
2024-02-06T09:55:28.906Z,78.34
2024-02-06T09:56:28.814Z,78.31
2024-02-06T09:57:28.854Z,78.31
2024-02-06T09:58:28.948Z,78.20
2024-02-06T09:59:28.812Z,78.20
2024-02-06T10:00:28.842Z,78.20
2024-02-06T10:01:28.947Z,78.11
2024-02-06T10:02:28.760Z,78.00
2024-02-06T10:03:28.777Z,77.90
2024-02-06T10:04:28.755Z,77.70
2024-02-06T10:05:28.926Z,77.59
2024-02-06T10:06:28.756Z,77.80
2024-02-06T10:07:28.754Z,77.70
2024-02-06T10:08:28.684Z,77.70
2024-02-06T10:09:29.460Z,77.45
2024-02-06T10:10:28.755Z,77.39
2024-02-06T10:11:28.688Z,77.15
2024-02-06T10:12:28.657Z,77.15
2024-02-06T10:13:28.731Z,77.25
2024-02-06T10:14:28.643Z,77.19
2024-02-06T10:15:30.055Z,77.15
2024-02-06T10:16:28.668Z,77.15
2024-02-06T10:17:28.628Z,77.35
2024-02-06T10:18:28.689Z,77.15
2024-02-06T10:19:28.778Z,77.04
2024-02-06T10:20:28.546Z,77.04
2024-02-06T10:21:29.733Z,76.84
2024-02-06T10:22:28.560Z,76.84
2024-02-06T10:23:28.539Z,76.94
2024-02-06T10:24:28.509Z,76.84
2024-02-06T10:25:28.519Z,76.94
2024-02-06T10:26:28.484Z,77.04
2024-02-06T10:27:28.501Z,77.04
2024-02-06T10:28:28.487Z,77.04
2024-02-06T10:29:28.473Z,77.15
2024-02-06T10:30:28.478Z,77.45
2024-02-06T10:31:28.530Z,77.35
2024-02-06T10:32:28.425Z,77.45
2024-02-06T10:33:31.061Z,77.45
2024-02-06T10:34:29.167Z,77.35
2024-02-06T10:35:28.537Z,77.56
2024-02-06T10:36:28.400Z,77.56
2024-02-06T10:37:28.965Z,77.56
2024-02-06T10:38:28.420Z,77.56
2024-02-06T10:39:28.399Z,77.45
2024-02-06T10:40:28.354Z,77.45
2024-02-06T10:43:08.418Z,77.66
2024-02-06T10:43:46.212Z,77.86
2024-02-06T10:44:28.344Z,77.97
2024-02-06T10:45:28.286Z,78.07
2024-02-06T10:46:28.297Z,78.41
2024-02-06T10:47:28.322Z,78.38
2024-02-06T10:48:28.366Z,78.38
2024-02-06T10:49:28.400Z,78.61
2024-02-06T10:50:28.568Z,78.72
2024-02-06T10:51:29.904Z,78.72
2024-02-06T10:52:28.266Z,78.68
2024-02-06T10:53:28.206Z,78.72
2024-02-06T10:54:28.196Z,78.52
2024-02-06T10:55:28.207Z,78.72
2024-02-06T10:56:28.183Z,78.72
2024-02-06T10:57:28.377Z,78.58
2024-02-06T10:58:28.315Z,78.52
2024-02-06T10:59:28.196Z,78.38
2024-02-06T11:00:28.394Z,78.31
2024-02-06T11:01:28.211Z,78.27
2024-02-06T11:02:28.139Z,78.31
2024-02-06T11:03:28.765Z,78.27
2024-02-06T11:04:28.297Z,78.27
2024-02-06T11:05:28.110Z,78.27
2024-02-06T11:06:28.162Z,78.17
2024-02-06T11:07:28.154Z,78.17
2024-02-06T11:08:28.089Z,78.27
2024-02-06T11:09:29.446Z,78.27
2024-02-06T11:10:28.112Z,78.58
2024-02-06T11:11:28.087Z,78.48
2024-02-06T11:12:34.822Z,78.38
2024-02-06T11:13:28.120Z,78.38
2024-02-06T11:14:27.966Z,78.48
2024-02-06T11:15:27.954Z,78.48
2024-02-06T11:16:28.016Z,78.61
2024-02-06T11:17:28.000Z,78.72
2024-02-06T11:18:27.988Z,78.92
2024-02-06T11:19:28.342Z,79.23
2024-02-06T11:20:28.256Z,79.33
2024-02-06T11:21:29.081Z,79.43
2024-02-06T11:22:27.940Z,79.53
2024-02-06T11:23:27.878Z,79.64
2024-02-06T11:24:27.892Z,79.64
2024-02-06T11:25:27.908Z,79.64
2024-02-06T11:26:27.873Z,79.84
2024-02-06T11:27:27.858Z,79.84
2024-02-06T11:28:27.846Z,80.05
2024-02-06T11:29:27.884Z,79.84
2024-02-06T11:30:27.830Z,79.84
2024-02-06T11:31:27.845Z,79.84
2024-02-06T11:32:27.849Z,79.94
2024-02-06T11:33:27.833Z,79.94
2024-02-06T11:34:27.864Z,79.74
2024-02-06T11:35:27.777Z,79.43
2024-02-06T11:36:27.722Z,79.19
2024-02-06T11:37:27.812Z,79.13
2024-02-06T11:38:27.726Z,79.09
2024-02-06T11:39:27.696Z,79.09
2024-02-06T11:40:27.735Z,78.88
2024-02-06T11:41:27.676Z,78.88
2024-02-06T11:42:27.667Z,78.88
2024-02-06T11:43:27.728Z,78.99
2024-02-06T11:44:27.648Z,78.99
2024-02-06T11:45:27.628Z,78.88
2024-02-06T11:46:27.630Z,78.88
2024-02-06T11:47:27.656Z,78.99
2024-02-06T11:48:27.947Z,78.78
2024-02-06T11:49:28.419Z,78.78
2024-02-06T11:50:28.869Z,78.68
2024-02-06T11:51:27.568Z,78.78
2024-02-06T11:52:27.635Z,78.48
2024-02-06T11:53:27.570Z,78.58
2024-02-06T11:54:27.535Z,78.48
2024-02-06T11:55:27.561Z,78.27
2024-02-06T11:56:27.500Z,77.93
2024-02-06T11:57:27.497Z,77.62
2024-02-06T11:58:27.512Z,77.31
2024-02-06T11:59:27.520Z,77.22
2024-02-06T12:00:27.459Z,77.31
2024-02-06T12:01:27.712Z,77.01
2024-02-06T12:02:27.485Z,76.70
2024-02-06T12:03:27.466Z,76.90
2024-02-06T12:04:27.453Z,76.29
2024-02-06T12:05:27.648Z,76.19
2024-02-06T12:06:27.486Z,76.40
2024-02-06T12:07:27.452Z,75.89
2024-02-06T12:08:28.177Z,75.99
2024-02-06T12:09:27.415Z,76.09
2024-02-06T12:10:27.416Z,76.09
2024-02-06T12:11:27.350Z,75.89
2024-02-06T12:12:27.333Z,75.78
2024-02-06T12:13:27.407Z,75.68
2024-02-06T12:14:27.312Z,75.75
2024-02-06T12:15:27.312Z,75.58
2024-02-06T12:16:27.330Z,75.44
2024-02-06T12:17:27.293Z,75.44
2024-02-06T12:18:27.305Z,75.44
2024-02-06T12:19:27.319Z,75.24
2024-02-06T12:20:27.343Z,75.24
2024-02-06T12:21:27.265Z,75.24
2024-02-06T12:22:27.258Z,75.13
2024-02-06T12:23:27.264Z,75.04
2024-02-06T12:24:27.255Z,74.83
2024-02-06T12:25:27.242Z,75.04
2024-02-06T12:26:27.177Z,74.83
2024-02-06T12:27:27.191Z,74.93
2024-02-06T12:28:27.180Z,74.73
2024-02-06T12:29:27.153Z,74.69
2024-02-06T12:30:27.141Z,74.59
2024-02-06T12:31:27.146Z,74.49
2024-02-06T12:32:27.152Z,74.38
2024-02-06T12:33:27.199Z,74.59
2024-02-06T12:34:27.173Z,74.69
2024-02-06T12:35:27.115Z,74.49
2024-02-06T12:36:27.102Z,74.49
2024-02-06T12:37:27.103Z,74.38
2024-02-06T12:38:27.047Z,74.38
2024-02-06T12:39:27.059Z,74.38
2024-02-06T12:40:27.046Z,74.49
2024-02-06T12:41:27.011Z,74.29
2024-02-06T12:42:26.999Z,74.38
2024-02-06T12:43:27.013Z,74.52
2024-02-06T12:44:41.587Z,74.73
2024-02-06T12:45:26.976Z,74.63
2024-02-06T12:46:26.985Z,74.73
2024-02-06T12:47:27.045Z,74.93
2024-02-06T12:48:26.940Z,74.93
2024-02-06T12:49:26.951Z,74.93
2024-02-06T12:50:27.098Z,75.04
2024-02-06T12:51:26.907Z,75.04
2024-02-06T12:52:26.937Z,74.63
2024-02-06T12:53:26.908Z,74.63
2024-02-06T12:54:26.876Z,74.63
2024-02-06T12:55:27.391Z,74.63
2024-02-06T12:56:26.853Z,74.63
2024-02-06T12:57:26.849Z,74.63
2024-02-06T12:58:26.854Z,74.73
2024-02-06T12:59:32.555Z,74.73
2024-02-06T13:00:26.828Z,74.83
2024-02-06T13:01:26.863Z,74.63
2024-02-06T13:02:26.912Z,74.63
2024-02-06T13:03:26.883Z,74.52
2024-02-06T13:04:27.144Z,74.52
2024-02-06T13:05:28.008Z,74.73
2024-02-06T13:06:26.853Z,74.63
2024-02-06T13:07:26.895Z,74.32
2024-02-06T13:08:30.468Z,74.42
2024-02-06T13:09:26.718Z,74.42
2024-02-06T13:10:27.153Z,74.42
2024-02-06T13:11:26.695Z,74.63
2024-02-06T13:12:26.680Z,74.63
2024-02-06T13:13:26.719Z,74.63
2024-02-06T13:14:26.670Z,74.52
2024-02-06T13:15:26.664Z,74.42
2024-02-06T13:16:27.662Z,74.49
2024-02-06T13:17:26.698Z,74.73
2024-02-06T13:18:26.635Z,74.63
2024-02-06T13:19:26.649Z,74.63
2024-02-06T13:20:26.698Z,74.73
2024-02-06T13:21:26.578Z,74.73
2024-02-06T13:22:26.622Z,74.63
2024-02-06T13:23:26.547Z,74.42
2024-02-06T13:24:26.574Z,74.52
2024-02-06T13:25:27.739Z,74.52
2024-02-06T13:26:26.541Z,74.42
2024-02-06T13:27:26.510Z,74.63
2024-02-06T13:28:26.625Z,74.63
2024-02-06T13:29:26.494Z,74.63
2024-02-06T13:30:26.527Z,74.63
2024-02-06T13:31:33.253Z,74.63
2024-02-06T13:32:26.542Z,74.42
2024-02-06T13:33:26.613Z,74.52
2024-02-06T13:34:26.578Z,74.63
2024-02-06T13:35:26.467Z,74.63
2024-02-06T13:36:26.418Z,74.83
2024-02-06T13:37:26.484Z,75.04
2024-02-06T13:38:26.396Z,75.04
2024-02-06T13:39:26.389Z,74.93
2024-02-06T13:40:26.492Z,75.13
2024-02-06T13:41:26.374Z,75.24
2024-02-06T13:42:26.366Z,75.54
2024-02-06T13:43:26.658Z,75.54
2024-02-06T13:44:26.353Z,75.54
2024-02-06T13:45:26.374Z,75.65
2024-02-06T13:46:26.338Z,75.65
2024-02-06T13:47:26.322Z,75.65
2024-02-06T13:48:26.357Z,75.75
2024-02-06T13:49:26.348Z,75.75
2024-02-06T13:50:26.562Z,76.06
2024-02-06T13:51:26.268Z,76.50
2024-02-06T13:52:26.259Z,76.81
2024-02-06T13:53:26.249Z,76.90
2024-02-06T13:54:26.225Z,76.70
2024-02-06T13:55:26.220Z,76.67
2024-02-06T13:56:26.218Z,76.56
2024-02-06T13:57:26.186Z,76.60
2024-02-06T13:58:26.223Z,76.67
2024-02-06T13:59:27.555Z,76.40
2024-02-06T14:00:26.150Z,76.26
2024-02-06T14:01:26.174Z,76.26
2024-02-06T14:02:26.198Z,76.26
2024-02-06T14:03:26.186Z,76.46
2024-02-06T14:04:26.139Z,76.67
2024-02-06T14:05:29.227Z,76.67
2024-02-06T14:06:26.188Z,76.67
2024-02-06T14:07:26.092Z,76.70
2024-02-06T14:08:26.080Z,76.67
2024-02-06T14:09:26.052Z,76.77
2024-02-06T14:10:26.094Z,76.67
2024-02-06T14:11:27.892Z,76.56
2024-02-06T14:12:29.735Z,76.77
2024-02-06T14:13:26.034Z,76.67
2024-02-06T14:14:26.015Z,76.67
2024-02-06T14:15:25.994Z,76.77
2024-02-06T14:16:26.067Z,76.77
2024-02-06T14:17:28.523Z,76.87
2024-02-06T14:18:26.016Z,76.77
2024-02-06T14:19:26.044Z,76.87
2024-02-06T14:20:26.093Z,76.87
2024-02-06T14:21:25.940Z,76.90
2024-02-06T14:22:25.956Z,76.97
2024-02-06T14:23:27.524Z,76.97
2024-02-06T14:24:25.895Z,76.90
2024-02-06T14:25:25.949Z,76.97
2024-02-06T14:26:25.943Z,76.77
2024-02-06T14:27:25.865Z,76.67
2024-02-06T14:28:25.947Z,76.67
2024-02-06T14:29:27.451Z,76.77
2024-02-06T14:30:25.841Z,76.77
2024-02-06T14:31:25.884Z,76.87
2024-02-06T14:32:25.829Z,76.87
2024-02-06T14:33:25.921Z,77.01
2024-02-06T14:34:25.825Z,76.77
2024-02-06T14:35:27.714Z,76.77
2024-02-06T14:36:25.887Z,76.87
2024-02-06T14:37:25.829Z,76.67
2024-02-06T14:38:25.745Z,76.87
2024-02-06T14:39:25.723Z,76.77
2024-02-06T14:40:25.746Z,76.67
2024-02-06T14:41:25.734Z,76.56
2024-02-06T14:42:25.722Z,76.67
2024-02-06T14:43:25.718Z,76.56
2024-02-06T14:44:36.113Z,76.67
2024-02-06T14:45:25.667Z,76.67
2024-02-06T14:46:25.692Z,76.56
2024-02-06T14:47:25.718Z,76.56
2024-02-06T14:48:25.717Z,76.56
2024-02-06T14:49:25.770Z,76.67
2024-02-06T14:50:25.678Z,76.77
2024-02-06T14:51:28.215Z,76.67
2024-02-06T14:52:25.617Z,76.77
2024-02-06T14:53:25.575Z,76.56
2024-02-06T14:54:25.584Z,76.46
2024-02-06T14:55:25.586Z,76.56
2024-02-06T14:56:25.564Z,76.46
2024-02-06T14:57:28.140Z,76.26
2024-02-06T14:58:25.589Z,76.36
2024-02-06T14:59:25.515Z,76.36
2024-02-06T15:00:25.511Z,76.26
2024-02-06T15:01:25.564Z,76.16
2024-02-06T15:02:25.527Z,76.26
2024-02-06T15:03:25.482Z,76.26
2024-02-06T15:04:25.519Z,76.16
2024-02-06T15:05:29.255Z,76.16
2024-02-06T15:06:25.534Z,75.85
2024-02-06T15:07:25.481Z,75.95
2024-02-06T15:08:25.503Z,75.85
2024-02-06T15:09:25.398Z,75.65
2024-02-06T15:10:25.439Z,75.65
2024-02-06T15:11:25.389Z,75.31
2024-02-06T15:12:25.370Z,75.20
2024-02-06T15:13:25.395Z,75.10
2024-02-06T15:14:27.222Z,75.10
2024-02-06T15:15:25.341Z,75.10
2024-02-06T15:16:25.365Z,75.10
2024-02-06T15:17:25.325Z,75.10
2024-02-06T15:18:25.399Z,75.10
2024-02-06T15:19:25.543Z,75.10
2024-02-06T15:20:25.632Z,75.10
2024-02-06T15:21:25.408Z,75.00
2024-02-06T15:22:25.292Z,75.10
2024-02-06T15:23:25.246Z,75.10
2024-02-06T15:24:25.289Z,75.10
2024-02-06T15:25:25.271Z,75.10
2024-02-06T15:26:25.237Z,75.10
2024-02-06T15:27:25.211Z,75.20
2024-02-06T15:28:25.240Z,75.31
2024-02-06T15:29:25.188Z,75.44
2024-02-06T15:30:25.185Z,75.65
2024-02-06T15:31:25.241Z,75.65
2024-02-06T15:32:25.201Z,75.75
2024-02-06T15:33:25.322Z,75.85
2024-02-06T15:34:25.219Z,75.85
2024-02-06T15:35:25.204Z,76.06
2024-02-06T15:36:25.147Z,76.16
2024-02-06T15:37:25.119Z,76.26
2024-02-06T15:38:25.103Z,76.46
2024-02-06T15:39:25.073Z,76.56
2024-02-06T15:40:25.101Z,76.67
2024-02-06T15:41:25.087Z,76.77
2024-02-06T15:42:25.046Z,76.77
2024-02-06T15:43:25.069Z,76.77
2024-02-06T15:44:25.027Z,76.87
2024-02-06T15:45:25.015Z,76.77
2024-02-06T15:46:25.083Z,76.87
2024-02-06T15:47:24.989Z,76.77
2024-02-06T15:48:25.023Z,76.97
2024-02-06T15:49:25.073Z,77.08
2024-02-06T15:50:25.198Z,77.18
2024-02-06T15:51:24.969Z,77.31
2024-02-06T15:52:24.984Z,77.22
2024-02-06T15:53:24.965Z,77.22
2024-02-06T15:54:24.977Z,77.31
2024-02-06T15:55:25.044Z,77.28
2024-02-06T15:56:24.962Z,77.31
2024-02-06T15:57:24.978Z,77.31
2024-02-06T15:58:25.187Z,77.28
2024-02-06T15:59:25.030Z,77.31
2024-02-06T16:00:24.876Z,77.42
2024-02-06T16:01:24.929Z,77.42
2024-02-06T16:02:25.130Z,77.28
2024-02-06T16:03:25.732Z,77.42
2024-02-06T16:04:24.960Z,77.38
2024-02-06T16:05:24.972Z,77.48
2024-02-06T16:06:24.883Z,77.31
2024-02-06T16:07:24.887Z,77.31
2024-02-06T16:08:24.780Z,77.31
2024-02-06T16:09:24.752Z,77.48
2024-02-06T16:10:24.815Z,77.38
2024-02-06T16:11:24.816Z,77.42
2024-02-06T16:12:33.762Z,77.42
2024-02-06T16:13:25.015Z,77.62
2024-02-06T16:14:24.713Z,77.31
2024-02-06T16:15:24.678Z,77.31
2024-02-06T16:16:24.784Z,77.08
2024-02-06T16:17:24.675Z,77.08
2024-02-06T16:18:24.816Z,77.31
2024-02-06T16:19:31.260Z,77.42
2024-02-06T16:20:24.791Z,77.48
2024-02-06T16:21:24.650Z,77.52
2024-02-06T16:22:24.728Z,77.52
2024-02-06T16:23:24.673Z,77.31
2024-02-06T16:24:24.628Z,77.31
2024-02-06T16:25:26.285Z,77.31
2024-02-06T16:26:24.590Z,77.52
2024-02-06T16:27:24.647Z,77.22
2024-02-06T16:28:24.681Z,77.22
2024-02-06T16:29:24.636Z,77.22
2024-02-06T16:30:24.596Z,77.42
2024-02-06T16:31:24.575Z,77.52
2024-02-06T16:32:24.573Z,77.31
2024-02-06T16:33:24.627Z,77.31
2024-02-06T16:34:32.954Z,77.62
2024-02-06T16:35:24.612Z,77.31
2024-02-06T16:36:24.621Z,77.08
2024-02-06T16:37:24.525Z,76.97
2024-02-06T16:38:24.492Z,77.08
2024-02-06T16:39:24.473Z,77.08
2024-02-06T16:40:24.646Z,77.22
2024-02-06T16:41:24.457Z,77.31
2024-02-06T16:42:24.452Z,77.28
2024-02-06T16:43:24.455Z,77.28
2024-02-06T16:44:24.424Z,77.52
2024-02-06T16:45:24.413Z,77.62
2024-02-06T16:46:24.455Z,77.72
2024-02-06T16:47:24.441Z,77.31
2024-02-06T16:48:24.460Z,77.38
2024-02-06T16:49:24.447Z,77.72
2024-02-06T16:50:24.399Z,78.23
2024-02-06T16:51:24.360Z,78.44
2024-02-06T16:52:24.393Z,78.64
2024-02-06T16:53:24.326Z,78.75
2024-02-06T16:54:24.815Z,78.75
2024-02-06T16:55:24.676Z,78.85
2024-02-06T16:56:24.318Z,79.05
2024-02-06T16:57:24.752Z,79.25
2024-02-06T16:58:24.307Z,79.70
2024-02-06T16:59:24.262Z,79.91
2024-02-06T17:00:24.265Z,80.42
2024-02-06T17:01:24.341Z,80.73
2024-02-06T17:02:24.347Z,80.97
2024-02-06T17:03:24.251Z,81.17
2024-02-06T17:04:24.288Z,81.27
2024-02-06T17:05:24.750Z,81.27
2024-02-06T17:06:24.203Z,81.38
2024-02-06T17:07:24.325Z,81.38
2024-02-06T17:08:24.171Z,81.38
2024-02-06T17:09:24.156Z,81.48
2024-02-06T17:10:24.149Z,81.48
2024-02-06T17:11:24.134Z,81.48
2024-02-06T17:12:24.139Z,81.48
2024-02-06T17:13:24.146Z,81.58
2024-02-06T17:14:24.100Z,81.58
2024-02-06T17:15:24.125Z,81.48
2024-02-06T17:16:24.149Z,81.27
2024-02-06T17:17:24.069Z,81.27
2024-02-06T17:18:24.055Z,81.38
2024-02-06T17:19:24.105Z,81.38
2024-02-06T17:20:24.159Z,81.58
2024-02-06T17:21:24.070Z,81.88
2024-02-06T17:22:24.070Z,82.09
2024-02-06T17:23:24.023Z,82.23
2024-02-06T17:24:24.042Z,82.54
2024-02-06T17:25:24.018Z,82.75
2024-02-06T17:26:23.989Z,83.05
2024-02-06T17:27:23.996Z,83.36
2024-02-06T17:28:23.966Z,83.36
2024-02-06T17:29:23.955Z,83.36
2024-02-06T17:30:23.923Z,83.15
2024-02-06T17:31:23.993Z,83.25
2024-02-06T17:32:23.900Z,83.25
2024-02-06T17:33:24.048Z,83.46
2024-02-06T17:34:23.988Z,83.56
2024-02-06T17:35:23.955Z,83.66
2024-02-06T17:36:23.903Z,83.87
2024-02-06T17:37:23.899Z,83.97
2024-02-06T17:38:23.852Z,84.01
2024-02-06T17:39:23.834Z,83.76
2024-02-06T17:40:23.848Z,83.46
2024-02-06T17:41:23.804Z,83.25
2024-02-06T17:42:23.795Z,83.25
2024-02-06T17:43:23.838Z,83.05
2024-02-06T17:44:23.775Z,83.15
2024-02-06T17:45:23.771Z,83.25
2024-02-06T17:46:23.774Z,83.25
2024-02-06T17:47:23.734Z,83.15
2024-02-06T17:48:23.756Z,83.15
2024-02-06T17:49:23.818Z,82.95
2024-02-06T17:50:23.920Z,82.64
2024-02-06T17:51:23.705Z,82.64
2024-02-06T17:52:23.804Z,82.70
2024-02-06T17:53:23.726Z,82.75